createdAt,value
2018-07-14T00:01:22.902Z,5.37
2018-07-14T00:03:51.233Z,5.00
2018-07-14T00:06:20.540Z,5.90
2018-07-14T00:08:48.857Z,5.93
2018-07-14T00:11:17.176Z,5.37
2018-07-14T00:13:45.483Z,6.10
2018-07-14T00:16:13.759Z,5.57
2018-07-14T00:18:42.109Z,5.70
2018-07-14T00:21:10.386Z,5.87
2018-07-14T00:23:38.949Z,5.57
2018-07-14T00:26:07.225Z,5.10
2018-07-14T00:28:35.490Z,5.73
2018-07-14T00:31:03.832Z,5.33
2018-07-14T00:33:32.080Z,5.23
2018-07-14T00:36:00.447Z,5.80
2018-07-14T00:38:28.992Z,5.47
2018-07-14T00:40:57.312Z,5.40
2018-07-14T00:43:25.590Z,6.07
2018-07-14T00:45:53.891Z,6.03
2018-07-14T00:48:22.177Z,6.40
2018-07-14T00:50:50.497Z,6.10
2018-07-14T00:53:18.853Z,6.50
2018-07-14T00:55:47.136Z,5.70
2018-07-14T00:58:15.634Z,5.50
2018-07-14T01:00:43.940Z,5.07
2018-07-14T01:03:12.339Z,5.67
2018-07-14T01:05:40.646Z,7.13
2018-07-14T01:08:08.993Z,4.90
2018-07-14T01:10:37.295Z,5.73
2018-07-14T01:13:05.577Z,5.70
2018-07-14T01:15:33.882Z,5.80
2018-07-14T01:18:02.199Z,5.63
2018-07-14T01:20:30.513Z,6.00
2018-07-14T01:22:58.800Z,6.40
2018-07-14T01:25:27.121Z,5.50
2018-07-14T01:27:56.109Z,5.80
2018-07-14T01:30:24.536Z,6.20
2018-07-14T01:32:52.809Z,5.73
2018-07-14T01:35:21.165Z,5.30
2018-07-14T01:37:49.428Z,5.80
2018-07-14T01:40:17.733Z,5.77
2018-07-14T01:42:46.026Z,5.40
2018-07-14T01:45:14.354Z,5.80
2018-07-14T01:47:42.617Z,6.27
2018-07-14T01:50:10.917Z,5.90
2018-07-14T01:52:39.192Z,5.37
2018-07-14T01:55:07.489Z,6.43
2018-07-14T01:57:35.800Z,5.70
2018-07-14T02:00:04.188Z,5.73
2018-07-14T02:02:32.467Z,5.50
2018-07-14T02:05:00.907Z,6.10
2018-07-14T02:07:29.203Z,6.30
2018-07-14T02:09:57.613Z,5.20
2018-07-14T02:12:25.909Z,6.00
2018-07-14T02:14:54.214Z,5.87
2018-07-14T02:17:22.498Z,6.47
2018-07-14T02:19:50.769Z,5.10
2018-07-14T02:22:19.061Z,5.60
2018-07-14T02:24:47.337Z,5.63
2018-07-14T02:27:15.673Z,5.80
2018-07-14T02:29:43.955Z,6.03
2018-07-14T02:32:12.255Z,6.00
2018-07-14T02:34:40.509Z,6.03
2018-07-14T02:37:08.817Z,5.73
2018-07-14T02:39:37.106Z,6.00
2018-07-14T02:42:05.404Z,5.70
2018-07-14T02:44:33.691Z,7.70
2018-07-14T02:47:02.019Z,6.00
2018-07-14T02:49:30.822Z,5.90
2018-07-14T02:51:59.822Z,5.37
2018-07-14T02:54:28.096Z,6.60
2018-07-14T02:56:56.428Z,6.40
2018-07-14T02:59:24.714Z,6.43
2018-07-14T03:01:53.004Z,6.53
2018-07-14T03:04:21.284Z,6.13
2018-07-14T03:06:49.593Z,7.00
2018-07-14T03:09:17.890Z,6.50
2018-07-14T03:11:46.192Z,5.43
2018-07-14T03:14:14.453Z,5.03
2018-07-14T03:16:42.900Z,6.30
2018-07-14T03:19:11.322Z,6.70
2018-07-14T03:21:39.617Z,7.23
2018-07-14T03:24:07.926Z,5.87
2018-07-14T03:26:36.253Z,7.10
2018-07-14T03:29:04.561Z,6.77
2018-07-14T03:31:32.843Z,7.50
2018-07-14T03:34:01.137Z,6.17
2018-07-14T03:36:29.401Z,6.07
2018-07-14T03:38:58.220Z,6.50
2018-07-14T03:41:26.498Z,5.30
2018-07-14T03:43:54.821Z,7.10
2018-07-14T03:46:23.112Z,6.10
2018-07-14T03:48:51.490Z,7.10
2018-07-14T03:51:19.777Z,8.60
2018-07-14T03:53:48.406Z,7.53
2018-07-14T03:56:16.733Z,6.67
2018-07-14T03:58:45.047Z,7.27
2018-07-14T04:01:13.347Z,6.07
2018-07-14T04:03:41.642Z,6.90
2018-07-14T04:06:09.925Z,6.67
2018-07-14T04:08:38.207Z,7.70
2018-07-14T04:11:06.617Z,8.73
2018-07-14T04:13:34.960Z,9.50
2018-07-14T04:16:03.336Z,7.80
2018-07-14T04:18:31.642Z,6.03
2018-07-14T04:21:00.545Z,6.87
2018-07-14T04:23:28.844Z,5.97
2018-07-14T04:25:57.152Z,7.33
2018-07-14T04:28:25.616Z,6.50
2018-07-14T04:30:53.909Z,6.40
2018-07-14T04:33:22.226Z,7.23
2018-07-14T04:35:50.485Z,6.87
2018-07-14T04:38:18.764Z,6.70
2018-07-14T04:40:47.069Z,6.40
2018-07-14T04:43:15.323Z,7.50
2018-07-14T04:45:43.614Z,6.70
2018-07-14T04:48:11.901Z,6.23
2018-07-14T04:50:40.218Z,6.00
2018-07-14T04:53:08.570Z,6.17
2018-07-14T04:55:36.836Z,6.30
2018-07-14T04:58:05.179Z,6.60
2018-07-14T05:00:33.469Z,6.30
2018-07-14T05:03:01.825Z,6.10
2018-07-14T05:05:30.109Z,6.23
2018-07-14T05:07:58.383Z,5.93
2018-07-14T05:10:26.697Z,5.90
2018-07-14T05:12:54.977Z,6.87
2018-07-14T05:15:23.290Z,5.60
2018-07-14T05:17:51.618Z,6.50
2018-07-14T05:20:19.913Z,6.17
2018-07-14T05:22:48.183Z,6.60
2018-07-14T05:25:16.522Z,5.73
2018-07-14T05:27:44.805Z,5.97
2018-07-14T05:30:13.104Z,6.77
2018-07-14T05:32:41.402Z,6.17
2018-07-14T05:35:09.741Z,5.80
2018-07-14T05:37:38.029Z,6.17
2018-07-14T05:40:06.481Z,5.33
2018-07-14T05:42:34.789Z,6.13
2018-07-14T05:45:03.201Z,6.27
2018-07-14T05:47:31.472Z,6.30
2018-07-14T05:49:59.798Z,6.90
2018-07-14T05:52:28.089Z,5.33
2018-07-14T05:54:56.452Z,6.03
2018-07-14T05:57:24.800Z,6.07
2018-07-14T05:59:53.085Z,6.00
2018-07-14T06:02:21.385Z,5.80
2018-07-14T06:04:49.720Z,5.70
2018-07-14T06:07:18.022Z,5.40
2018-07-14T06:09:46.297Z,5.17
2018-07-14T06:12:14.675Z,5.40
2018-07-14T06:14:42.955Z,5.30
2018-07-14T06:17:12.063Z,5.60
2018-07-14T06:19:40.428Z,5.10
2018-07-14T06:22:08.675Z,4.73
2018-07-14T06:24:36.949Z,5.07
2018-07-14T06:27:05.357Z,5.33
2018-07-14T06:29:33.615Z,5.27
2018-07-14T06:32:02.057Z,4.50
2018-07-14T06:34:30.269Z,4.97
2018-07-14T06:36:58.600Z,4.90
2018-07-14T06:39:26.902Z,4.90
2018-07-14T06:41:55.197Z,4.00
2018-07-14T06:44:23.493Z,4.90
2018-07-14T06:46:51.816Z,4.60
2018-07-14T06:49:20.110Z,4.87
2018-07-14T06:51:48.426Z,4.30
2018-07-14T06:54:16.782Z,4.83
2018-07-14T06:56:45.078Z,5.10
2018-07-14T06:59:13.371Z,4.80
2018-07-14T07:01:41.677Z,4.87
2018-07-14T07:04:09.942Z,5.33
2018-07-14T07:06:39.169Z,5.77
2018-07-14T07:09:07.506Z,4.60
2018-07-14T07:11:35.825Z,4.97
2018-07-14T07:14:04.158Z,3.73
2018-07-14T07:16:32.453Z,4.30
2018-07-14T07:19:00.753Z,4.87
2018-07-14T07:21:29.281Z,4.67
2018-07-14T07:23:57.409Z,4.80
2018-07-14T07:26:25.711Z,3.97
2018-07-14T07:28:54.079Z,4.83
2018-07-14T07:31:22.338Z,4.30
2018-07-14T07:33:50.663Z,4.20
2018-07-14T07:36:18.937Z,3.80
2018-07-14T07:38:47.313Z,4.07
2018-07-14T07:41:15.654Z,4.27
2018-07-14T07:43:44.668Z,3.93
2018-07-14T07:46:12.957Z,4.23
2018-07-14T07:48:41.226Z,4.20
2018-07-14T07:51:09.500Z,4.60
2018-07-14T07:53:37.819Z,4.10
2018-07-14T07:56:06.248Z,3.77
2018-07-14T07:58:34.617Z,4.40
2018-07-14T08:01:02.884Z,4.47
2018-07-14T08:03:31.237Z,3.90
2018-07-14T08:05:59.513Z,4.10
2018-07-14T08:08:28.665Z,3.87
2018-07-14T08:10:56.930Z,3.60
2018-07-14T08:13:25.221Z,3.57
2018-07-14T08:15:53.490Z,3.60
2018-07-14T08:18:21.794Z,4.00
2018-07-14T08:20:50.081Z,4.27
2018-07-14T08:23:18.677Z,3.33
2018-07-14T08:25:46.968Z,3.10
2018-07-14T08:28:15.271Z,3.60
2018-07-14T08:30:43.588Z,2.90
2018-07-14T08:33:11.894Z,3.60
2018-07-14T08:35:40.201Z,3.00
2018-07-14T08:38:08.579Z,3.23
2018-07-14T08:40:36.827Z,4.00
2018-07-14T08:43:05.191Z,3.30
2018-07-14T08:45:33.499Z,3.23
2018-07-14T08:48:01.855Z,3.87
2018-07-14T08:50:30.205Z,3.67
2018-07-14T08:52:58.506Z,3.23
2018-07-14T08:55:26.792Z,3.20
2018-07-14T08:57:55.101Z,3.63
2018-07-14T09:00:23.369Z,2.97
2018-07-14T09:02:51.656Z,3.20
2018-07-14T09:05:19.966Z,2.70
2018-07-14T09:07:48.277Z,3.43
2018-07-14T09:10:16.554Z,3.17
2018-07-14T09:12:45.044Z,2.90
2018-07-14T09:15:13.345Z,2.87
2018-07-14T09:17:41.615Z,2.93
2018-07-14T09:20:09.926Z,3.20
2018-07-14T09:22:38.218Z,3.17
2018-07-14T09:25:06.530Z,3.67
2018-07-14T09:27:34.841Z,2.73
2018-07-14T09:30:03.183Z,3.07
2018-07-14T09:32:31.511Z,2.90
2018-07-14T09:34:59.817Z,3.07
2018-07-14T09:37:28.117Z,3.00
2018-07-14T09:39:56.898Z,3.20
2018-07-14T09:42:25.186Z,2.93
2018-07-14T09:44:53.680Z,3.20
2018-07-14T09:47:21.986Z,2.80
2018-07-14T09:49:50.298Z,3.63
2018-07-14T09:52:18.798Z,2.77
2018-07-14T09:54:47.100Z,2.93
2018-07-14T09:57:15.555Z,3.10
2018-07-14T09:59:43.869Z,3.20
2018-07-14T10:02:12.142Z,3.50
2018-07-14T10:04:40.454Z,2.90
2018-07-14T10:07:08.721Z,2.90
2018-07-14T10:09:37.822Z,3.23
2018-07-14T10:12:06.142Z,2.93
2018-07-14T10:14:34.461Z,2.73
2018-07-14T10:17:02.738Z,2.73
2018-07-14T10:19:31.052Z,2.70
2018-07-14T10:21:59.329Z,2.33
2018-07-14T10:24:27.625Z,2.80
2018-07-14T10:26:56.293Z,3.40
2018-07-14T10:29:30.704Z,3.37
2018-07-14T10:31:59.008Z,3.07
2018-07-14T10:34:28.519Z,3.00
2018-07-14T10:36:56.861Z,2.63
2018-07-14T10:39:26.222Z,3.03
2018-07-14T10:41:56.603Z,3.10
2018-07-14T10:44:24.973Z,2.20
2018-07-14T10:46:53.277Z,3.30
2018-07-14T10:49:21.688Z,3.30
2018-07-14T10:51:49.960Z,3.53
2018-07-14T10:54:18.279Z,2.80
2018-07-14T10:56:46.618Z,3.37
2018-07-14T10:59:14.885Z,3.17
2018-07-14T11:01:43.185Z,2.90
2018-07-14T11:04:11.457Z,3.03
2018-07-14T11:06:39.772Z,2.80
2018-07-14T11:09:08.665Z,3.67
2018-07-14T11:11:37.015Z,3.20
2018-07-14T11:14:05.446Z,3.53
2018-07-14T11:16:33.796Z,3.17
2018-07-14T11:19:02.099Z,3.03
2018-07-14T11:21:30.422Z,2.87
2018-07-14T11:23:58.712Z,3.53
2018-07-14T11:26:27.048Z,3.00
2018-07-14T11:28:55.324Z,3.30
2018-07-14T11:31:23.637Z,3.80
2018-07-14T11:33:51.921Z,3.70
2018-07-14T11:36:20.229Z,3.93
2018-07-14T11:38:48.570Z,3.80
2018-07-14T11:41:16.976Z,3.73
2018-07-14T11:43:45.264Z,3.90
2018-07-14T11:46:13.564Z,3.60
2018-07-14T11:48:42.445Z,3.77
2018-07-14T11:51:10.787Z,4.10
2018-07-14T11:53:39.070Z,4.17
2018-07-14T11:56:07.426Z,3.60
2018-07-14T11:58:35.833Z,3.40
2018-07-14T12:01:04.154Z,4.13
2018-07-14T12:03:32.413Z,3.17
2018-07-14T12:06:00.731Z,3.20
2018-07-14T12:08:29.005Z,3.53
2018-07-14T12:10:57.302Z,3.57
2018-07-14T12:13:25.613Z,3.27
2018-07-14T12:15:53.931Z,3.57
2018-07-14T12:18:22.210Z,4.10
2018-07-14T12:20:50.486Z,3.53
2018-07-14T12:23:18.801Z,3.23
2018-07-14T12:25:47.110Z,3.30
2018-07-14T12:28:15.417Z,3.50
2018-07-14T12:30:43.765Z,3.17
2018-07-14T12:33:12.053Z,4.20
2018-07-14T12:35:40.335Z,4.10
2018-07-14T12:38:08.643Z,3.67
2018-07-14T12:40:36.904Z,3.50
2018-07-14T12:43:05.232Z,3.70
2018-07-14T12:45:33.561Z,4.77
2018-07-14T12:48:01.866Z,3.57
2018-07-14T12:50:30.137Z,4.40
2018-07-14T12:52:58.514Z,3.80
2018-07-14T12:55:26.802Z,3.40
2018-07-14T12:57:55.179Z,3.87
2018-07-14T13:00:23.499Z,3.37
2018-07-14T13:02:51.800Z,3.73
2018-07-14T13:05:20.075Z,3.43
2018-07-14T13:07:48.358Z,4.73
2018-07-14T13:10:16.625Z,3.30
2018-07-14T13:12:44.945Z,3.73
2018-07-14T13:15:13.211Z,3.70
2018-07-14T13:17:41.516Z,3.60
2018-07-14T13:20:09.922Z,4.00
2018-07-14T13:22:39.253Z,3.40
2018-07-14T13:25:07.605Z,3.50
2018-07-14T13:27:35.913Z,3.50
2018-07-14T13:30:04.465Z,3.63
2018-07-14T13:32:32.721Z,3.93
2018-07-14T13:35:01.037Z,3.70
2018-07-14T13:37:29.302Z,3.53
2018-07-14T13:39:58.300Z,4.30
2018-07-14T13:42:26.618Z,3.63
2018-07-14T13:44:54.902Z,3.87
2018-07-14T13:47:23.198Z,3.90
2018-07-14T13:49:51.581Z,3.80
2018-07-14T13:52:19.889Z,3.90
2018-07-14T13:54:48.202Z,3.80
2018-07-14T13:57:16.505Z,3.87
2018-07-14T13:59:44.821Z,4.27
2018-07-14T14:02:13.421Z,4.00
2018-07-14T14:04:42.260Z,3.50
2018-07-14T14:07:10.987Z,3.57
2018-07-14T14:09:41.093Z,3.57
2018-07-14T14:12:09.735Z,3.67
2018-07-14T14:14:38.777Z,3.17
2018-07-14T14:17:07.938Z,4.23
2018-07-14T14:19:36.688Z,3.97
2018-07-14T14:22:05.835Z,3.63
2018-07-14T14:24:34.902Z,3.87
2018-07-14T14:27:04.211Z,3.70
2018-07-14T14:29:33.439Z,3.63
2018-07-14T14:32:02.382Z,3.90
2018-07-14T14:34:31.069Z,4.00
2018-07-14T14:37:00.073Z,3.50
2018-07-14T14:39:29.258Z,4.10
2018-07-14T14:41:58.713Z,4.00
2018-07-14T14:44:27.465Z,3.90
2018-07-14T14:46:56.789Z,3.97
2018-07-14T14:49:25.720Z,3.40
2018-07-14T14:51:54.481Z,4.47
2018-07-14T14:54:22.790Z,4.07
2018-07-14T14:56:51.129Z,3.37
2018-07-14T14:59:19.430Z,3.93
2018-07-14T15:01:47.722Z,4.37
2018-07-14T15:04:15.985Z,3.43
2018-07-14T15:06:44.307Z,3.97
2018-07-14T15:09:12.631Z,3.40
2018-07-14T15:11:40.912Z,3.63
2018-07-14T15:14:09.215Z,5.00
2018-07-14T15:16:37.622Z,3.20
2018-07-14T15:19:05.845Z,3.30
2018-07-14T15:21:34.162Z,3.73
2018-07-14T15:24:02.881Z,4.70
2018-07-14T15:26:31.987Z,3.63
2018-07-14T15:29:00.660Z,4.50
2018-07-14T15:31:28.984Z,4.13
2018-07-14T15:33:57.269Z,3.90
2018-07-14T15:36:25.998Z,4.03
2018-07-14T15:38:54.738Z,4.10
2018-07-14T15:41:23.740Z,4.23
2018-07-14T15:43:52.478Z,4.20
2018-07-14T15:46:21.320Z,4.73
2018-07-14T15:48:50.479Z,4.03
2018-07-14T15:51:19.513Z,4.10
2018-07-14T15:53:47.836Z,4.23
2018-07-14T15:56:16.187Z,4.40
2018-07-14T15:58:44.505Z,4.47
2018-07-14T16:01:12.821Z,4.57
2018-07-14T16:03:41.106Z,4.27
2018-07-14T16:06:09.429Z,4.10
2018-07-14T16:08:38.525Z,4.70
2018-07-14T16:11:07.422Z,4.80
2018-07-14T16:13:35.825Z,4.50
2018-07-14T16:16:04.582Z,4.10
2018-07-14T16:18:33.248Z,4.30
2018-07-14T16:21:01.552Z,4.30
2018-07-14T16:23:29.841Z,4.13
2018-07-14T16:25:58.963Z,4.40
2018-07-14T16:28:28.439Z,4.17
2018-07-14T16:30:56.789Z,3.90
2018-07-14T16:33:25.110Z,4.20
2018-07-14T16:35:53.441Z,4.40
2018-07-14T16:38:22.047Z,4.03
2018-07-14T16:40:50.794Z,3.33
2018-07-14T16:43:20.202Z,4.23
2018-07-14T16:45:49.287Z,5.67
2018-07-14T16:48:17.614Z,5.97
2018-07-14T16:50:45.901Z,5.00
2018-07-14T16:53:14.198Z,5.43
2018-07-14T16:55:42.498Z,4.23
2018-07-14T16:58:10.883Z,4.27
2018-07-14T17:00:39.202Z,4.33
2018-07-14T17:03:07.534Z,4.20
2018-07-14T17:05:35.810Z,3.80
2018-07-14T17:08:04.220Z,3.90
2018-07-14T17:10:32.533Z,4.23
2018-07-14T17:13:00.847Z,6.00
2018-07-14T17:15:29.139Z,6.67
2018-07-14T17:17:57.470Z,5.70
2018-07-14T17:20:25.749Z,4.97
2018-07-14T17:22:54.054Z,5.07
2018-07-14T17:25:22.325Z,6.40
2018-07-14T17:27:50.630Z,5.30
2018-07-14T17:30:19.562Z,4.80
2018-07-14T17:32:47.862Z,4.40
2018-07-14T17:35:16.126Z,4.00
2018-07-14T17:37:44.401Z,4.40
2018-07-14T17:40:12.725Z,5.97
2018-07-14T17:42:41.045Z,5.40
2018-07-14T17:45:09.313Z,5.07
2018-07-14T17:47:37.650Z,4.40
2018-07-14T17:50:05.971Z,4.60
2018-07-14T17:52:34.265Z,5.10
2018-07-14T17:55:02.559Z,5.00
2018-07-14T17:57:30.892Z,5.47
2018-07-14T17:59:59.249Z,5.37
2018-07-14T18:02:27.518Z,5.33
2018-07-14T18:04:55.826Z,4.80
2018-07-14T18:07:24.659Z,4.83
2018-07-14T18:09:52.928Z,4.87
2018-07-14T18:12:21.261Z,4.60
2018-07-14T18:14:49.539Z,4.53
2018-07-14T18:17:17.815Z,4.70
2018-07-14T18:19:46.097Z,4.30
2018-07-14T18:22:14.370Z,4.90
2018-07-14T18:24:42.677Z,5.17
2018-07-14T18:27:10.984Z,5.00
2018-07-14T18:29:39.286Z,5.27
2018-07-14T18:32:08.505Z,5.47
2018-07-14T18:34:37.122Z,4.90
2018-07-14T18:37:05.543Z,4.70
2018-07-14T18:39:33.856Z,4.60
2018-07-14T18:42:02.218Z,5.00
2018-07-14T18:44:32.191Z,5.30
2018-07-14T18:47:00.715Z,4.53
2018-07-14T18:49:29.984Z,5.27
2018-07-14T18:52:01.667Z,5.40
2018-07-14T18:54:34.483Z,4.93
2018-07-14T18:57:05.316Z,4.70
2018-07-14T18:59:35.171Z,5.20
2018-07-14T19:02:06.575Z,5.20
2018-07-14T19:04:34.950Z,5.40
2018-07-14T19:07:03.215Z,5.00
2018-07-14T19:09:31.541Z,5.23
2018-07-14T19:11:59.816Z,5.80
2018-07-14T19:14:29.712Z,6.33
2018-07-14T19:16:59.224Z,5.87
2018-07-14T19:19:27.580Z,5.00
2018-07-14T19:21:55.855Z,5.50
2018-07-14T19:24:24.479Z,5.10
2018-07-14T19:26:52.790Z,5.43
2018-07-14T19:29:21.105Z,6.20
2018-07-14T19:31:49.392Z,5.83
2018-07-14T19:34:18.144Z,5.47
2018-07-14T19:36:46.447Z,5.90
2018-07-14T19:39:14.759Z,6.07
2018-07-14T19:41:43.022Z,5.70
2018-07-14T19:44:11.315Z,5.93
2018-07-14T19:46:40.542Z,5.90
2018-07-14T19:49:11.194Z,5.83
2018-07-14T19:51:41.923Z,5.40
2018-07-14T19:54:11.062Z,5.80
2018-07-14T19:56:39.688Z,6.00
2018-07-14T19:59:08.309Z,5.80
2018-07-14T20:01:37.934Z,5.70
2018-07-14T20:04:06.883Z,5.93
2018-07-14T20:06:36.918Z,6.53
2018-07-14T20:09:06.085Z,6.67
2018-07-14T20:11:34.877Z,6.43
2018-07-14T20:14:03.649Z,6.77
2018-07-14T20:16:32.485Z,6.63
2018-07-14T20:19:00.768Z,6.60
2018-07-14T20:21:29.504Z,7.13
2018-07-14T20:23:57.882Z,6.57
2018-07-14T20:26:26.650Z,7.87
2018-07-14T20:28:55.827Z,6.33
2018-07-14T20:31:24.323Z,7.60
2018-07-14T20:33:52.584Z,6.70
2018-07-14T20:36:20.921Z,6.53
2018-07-14T20:38:49.588Z,6.60
2018-07-14T20:41:23.801Z,6.43
2018-07-14T20:43:52.144Z,5.10
2018-07-14T20:46:21.440Z,6.50
2018-07-14T20:48:50.085Z,6.60
2018-07-14T20:51:18.390Z,6.23
2018-07-14T20:53:46.657Z,5.67
2018-07-14T20:56:14.968Z,6.00
2018-07-14T20:58:43.265Z,6.03
2018-07-14T21:01:11.541Z,6.80
2018-07-14T21:03:39.821Z,5.80
2018-07-14T21:06:08.249Z,5.57
2018-07-14T21:08:36.513Z,5.80
2018-07-14T21:11:04.843Z,6.07
2018-07-14T21:13:33.103Z,6.00
2018-07-14T21:16:01.407Z,5.30
2018-07-14T21:18:29.674Z,6.60
2018-07-14T21:20:58.069Z,6.60
2018-07-14T21:23:28.427Z,6.03
2018-07-14T21:25:59.428Z,6.00
2018-07-14T21:28:27.933Z,6.30
2018-07-14T21:30:57.454Z,6.10
2018-07-14T21:33:27.035Z,6.60
2018-07-14T21:35:55.647Z,6.73
2018-07-14T21:38:24.877Z,6.40
2018-07-14T21:40:54.203Z,6.83
2018-07-14T21:43:22.460Z,5.40
2018-07-14T21:45:50.894Z,6.47
2018-07-14T21:48:19.181Z,6.03
2018-07-14T21:50:47.530Z,6.00
2018-07-14T21:53:15.789Z,5.80
2018-07-14T21:55:44.076Z,6.23
2018-07-14T21:58:14.884Z,5.73
2018-07-14T22:00:50.224Z,6.23
2018-07-14T22:03:20.472Z,6.67
2018-07-14T22:05:48.861Z,6.40
2018-07-14T22:08:17.174Z,6.03
2018-07-14T22:10:45.495Z,6.90
2018-07-14T22:13:13.754Z,6.33
2018-07-14T22:15:42.018Z,6.40
2018-07-14T22:18:10.301Z,5.60
2018-07-14T22:20:38.670Z,6.40
2018-07-14T22:23:06.983Z,5.63
2018-07-14T22:25:35.277Z,6.70
2018-07-14T22:28:03.620Z,6.57
2018-07-14T22:30:31.890Z,6.30
2018-07-14T22:33:00.201Z,5.67
2018-07-14T22:35:29.386Z,6.00
2018-07-14T22:37:57.687Z,5.83
2018-07-14T22:40:25.968Z,6.20
2018-07-14T22:42:54.258Z,6.90
2018-07-14T22:45:22.562Z,6.20
2018-07-14T22:47:50.866Z,6.43
2018-07-14T22:50:19.146Z,6.83
2018-07-14T22:52:47.451Z,6.33
2018-07-14T22:55:15.974Z,6.70
2018-07-14T22:57:44.293Z,6.37
2018-07-14T23:00:12.664Z,6.30
2018-07-14T23:02:41.004Z,6.83
2018-07-14T23:05:09.302Z,6.50
2018-07-14T23:07:37.605Z,6.10
2018-07-14T23:10:05.978Z,6.73
2018-07-14T23:12:34.322Z,6.40
2018-07-14T23:15:02.742Z,7.07
2018-07-14T23:17:31.066Z,6.27
2018-07-14T23:19:59.330Z,6.93
2018-07-14T23:22:28.429Z,6.33
2018-07-14T23:24:56.705Z,5.67
2018-07-14T23:27:25.218Z,5.80
2018-07-14T23:29:53.513Z,6.30
2018-07-14T23:32:21.815Z,7.57
2018-07-14T23:34:50.110Z,6.63
2018-07-14T23:37:18.394Z,5.67
2018-07-14T23:39:46.734Z,6.20
2018-07-14T23:42:15.015Z,6.20
2018-07-14T23:44:43.290Z,6.33
2018-07-14T23:47:11.583Z,6.00
2018-07-14T23:49:39.873Z,6.30
2018-07-14T23:52:08.146Z,6.60
2018-07-14T23:54:36.610Z,6.40
2018-07-14T23:57:05.357Z,6.00
2018-07-14T23:59:33.693Z,7.27
